createdAt,value
2024-05-09T00:00:29.000Z,562.0586547851562
2024-05-09T00:01:31.000Z,558.9962768554688
2024-05-09T00:02:33.000Z,563.1354370117188
2024-05-09T00:03:35.000Z,559.9317016601562
2024-05-09T00:04:37.000Z,558.9800415039062
2024-05-09T00:05:40.000Z,558.4107666015625
2024-05-09T00:06:42.000Z,560.5641479492188
2024-05-09T00:07:44.000Z,560.9246826171875
2024-05-09T00:08:46.000Z,560.7389526367188
2024-05-09T00:09:48.000Z,561.3713989257812
2024-05-09T00:10:50.000Z,560.3563842773438
2024-05-09T00:11:53.000Z,558.6144409179688
2024-05-09T00:12:55.000Z,556.5103759765625
2024-05-09T00:13:57.000Z,558.3056640625
2024-05-09T00:14:59.000Z,558.4512329101562
2024-05-09T00:16:01.000Z,560.3010864257812
2024-05-09T00:17:03.000Z,557.6625366210938
2024-05-09T00:18:06.000Z,557.9728393554688
2024-05-09T00:19:08.000Z,558.5706176757812
2024-05-09T00:20:10.000Z,557.6727905273438
2024-05-09T00:21:12.000Z,557.1018676757812
2024-05-09T00:22:14.000Z,556.7453002929688
2024-05-09T00:23:16.000Z,555.3824462890625
2024-05-09T00:24:19.000Z,554.1636962890625
2024-05-09T00:25:21.000Z,553.0723266601562
2024-05-09T00:26:23.000Z,550.77734375
2024-05-09T00:27:25.000Z,551.4942016601562
2024-05-09T00:28:27.000Z,552.2615966796875
2024-05-09T00:29:29.000Z,553.7076416015625
2024-05-09T00:30:31.000Z,553.1452026367188
2024-05-09T00:31:34.000Z,552.6253051757812
2024-05-09T00:32:36.000Z,555.4126586914062
2024-05-09T00:33:38.000Z,556.7804565429688
2024-05-09T00:34:40.000Z,556.583984375
2024-05-09T00:35:42.000Z,554.2786254882812
2024-05-09T00:36:44.000Z,555.2973022460938
2024-05-09T00:37:47.000Z,556.6046142578125
2024-05-09T00:38:49.000Z,558.544677734375
2024-05-09T00:39:51.000Z,561.0708618164062
2024-05-09T00:40:53.000Z,562.2379760742188
2024-05-09T00:41:55.000Z,562.0208740234375
2024-05-09T00:42:57.000Z,561.8472900390625
2024-05-09T00:44:00.000Z,563.1217651367188
2024-05-09T00:45:02.000Z,565.066162109375
2024-05-09T00:46:04.000Z,567.0104370117188
2024-05-09T00:47:06.000Z,564.991943359375
2024-05-09T00:48:08.000Z,570.3193969726562
2024-05-09T00:49:10.000Z,573.052978515625
2024-05-09T00:50:12.000Z,576.970947265625
2024-05-09T00:51:15.000Z,575.9235229492188
2024-05-09T00:52:17.000Z,577.6267700195312
2024-05-09T00:53:19.000Z,578.033935546875
2024-05-09T00:54:21.000Z,577.6237182617188
2024-05-09T00:55:23.000Z,577.7696533203125
2024-05-09T00:56:25.000Z,578.0865478515625
2024-05-09T00:57:27.000Z,578.3394775390625
2024-05-09T00:58:30.000Z,577.86669921875
2024-05-09T00:59:32.000Z,578.54150390625
2024-05-09T01:00:34.000Z,577.8823852539062
2024-05-09T01:01:36.000Z,577.7344360351562
2024-05-09T01:02:38.000Z,577.8250122070312
2024-05-09T01:03:40.000Z,574.7122802734375
2024-05-09T01:04:42.000Z,575.3104858398438
2024-05-09T01:05:45.000Z,573.896240234375
2024-05-09T01:06:47.000Z,572.6629638671875
2024-05-09T01:07:49.000Z,571.7374267578125
2024-05-09T01:08:51.000Z,567.4708862304688
2024-05-09T01:09:53.000Z,567.5543823242188
2024-05-09T01:10:56.000Z,570.1499633789062
2024-05-09T01:11:58.000Z,571.9624633789062
2024-05-09T01:13:00.000Z,572.7648315429688
2024-05-09T01:14:02.000Z,576.0709838867188
2024-05-09T01:15:04.000Z,575.1376953125
2024-05-09T01:16:06.000Z,575.4072875976562
2024-05-09T01:17:08.000Z,575.4631958007812
2024-05-09T01:18:11.000Z,575.67431640625
2024-05-09T01:19:13.000Z,577.0232543945312
2024-05-09T01:20:15.000Z,577.482666015625
2024-05-09T01:21:17.000Z,575.922119140625
2024-05-09T01:22:19.000Z,577.0318603515625
2024-05-09T01:23:21.000Z,574.7943115234375
2024-05-09T01:24:23.000Z,571.56005859375
2024-05-09T01:25:26.000Z,571.1051025390625
2024-05-09T01:26:28.000Z,567.8677978515625
2024-05-09T01:27:30.000Z,564.869873046875
2024-05-09T01:28:32.000Z,563.6405029296875
2024-05-09T01:29:34.000Z,559.9166870117188
2024-05-09T01:30:36.000Z,556.5374145507812
2024-05-09T01:31:39.000Z,551.1865844726562
2024-05-09T01:32:41.000Z,550.4310913085938
2024-05-09T01:33:43.000Z,552.1272583007812
2024-05-09T01:34:45.000Z,552.5834350585938
2024-05-09T01:35:47.000Z,554.528076171875
2024-05-09T01:36:49.000Z,559.3370971679688
2024-05-09T01:37:51.000Z,565.4867553710938
2024-05-09T01:38:54.000Z,569.2963256835938
2024-05-09T01:39:56.000Z,571.6542358398438
2024-05-09T01:40:58.000Z,575.894775390625
2024-05-09T01:42:00.000Z,577.5657958984375
2024-05-09T01:43:02.000Z,578.5059814453125
2024-05-09T01:44:04.000Z,581.070068359375
2024-05-09T01:45:06.000Z,580.4951171875
2024-05-09T01:46:09.000Z,581.6476440429688
2024-05-09T01:47:11.000Z,582.8126831054688
2024-05-09T01:48:13.000Z,580.6864624023438
2024-05-09T01:49:15.000Z,581.5408935546875
2024-05-09T01:50:17.000Z,581.9099731445312
2024-05-09T01:51:19.000Z,580.0776977539062
2024-05-09T01:52:22.000Z,580.5470581054688
2024-05-09T01:53:24.000Z,583.1973876953125
2024-05-09T01:54:26.000Z,585.8927001953125
2024-05-09T01:55:28.000Z,589.1575927734375
2024-05-09T01:56:30.000Z,590.5946655273438
2024-05-09T01:57:32.000Z,589.0142822265625
2024-05-09T01:58:34.000Z,588.63134765625
2024-05-09T01:59:37.000Z,587.5884399414062
2024-05-09T02:00:39.000Z,589.8487548828125
2024-05-09T02:01:41.000Z,586.9115600585938
2024-05-09T02:02:43.000Z,586.9810180664062
2024-05-09T02:03:45.000Z,583.9913940429688
2024-05-09T02:04:47.000Z,581.4519653320312
2024-05-09T02:05:50.000Z,575.9365844726562
2024-05-09T02:06:52.000Z,577.6798706054688
2024-05-09T02:07:54.000Z,577.4887084960938
2024-05-09T02:08:56.000Z,577.3603515625
2024-05-09T02:09:58.000Z,577.267333984375
2024-05-09T02:11:00.000Z,577.4229125976562
2024-05-09T02:12:03.000Z,576.045166015625
2024-05-09T02:13:05.000Z,574.1633911132812
2024-05-09T02:14:07.000Z,575.2830810546875
2024-05-09T02:15:09.000Z,575.7511596679688
2024-05-09T02:16:11.000Z,577.0964965820312
2024-05-09T02:17:14.000Z,576.1467895507812
2024-05-09T02:18:16.000Z,575.2022094726562
2024-05-09T02:19:18.000Z,575.5654296875
2024-05-09T02:20:20.000Z,576.5960693359375
2024-05-09T02:21:22.000Z,576.7129516601562
2024-05-09T02:22:24.000Z,576.7093505859375
2024-05-09T02:23:26.000Z,575.4537963867188
2024-05-09T02:24:29.000Z,576.6248779296875
2024-05-09T02:25:31.000Z,579.5822143554688
2024-05-09T02:26:33.000Z,580.6548461914062
2024-05-09T02:27:35.000Z,579.7750244140625
2024-05-09T02:28:37.000Z,582.7635498046875
2024-05-09T02:29:40.000Z,581.2101440429688
2024-05-09T02:30:42.000Z,579.51025390625
2024-05-09T02:31:44.000Z,577.2942504882812
2024-05-09T02:32:46.000Z,577.1741333007812
2024-05-09T02:33:48.000Z,576.45751953125
2024-05-09T02:34:50.000Z,577.0169677734375
2024-05-09T02:35:53.000Z,575.2482299804688
2024-05-09T02:36:55.000Z,574.7734985351562
2024-05-09T02:37:57.000Z,573.8548583984375
2024-05-09T02:38:59.000Z,571.6746826171875
2024-05-09T02:40:01.000Z,570.0575561523438
2024-05-09T02:41:03.000Z,569.74072265625
2024-05-09T02:42:06.000Z,569.61083984375
2024-05-09T02:43:08.000Z,564.4598999023438
2024-05-09T02:44:10.000Z,564.6305541992188
2024-05-09T02:45:12.000Z,565.3263549804688
2024-05-09T02:46:14.000Z,563.1478881835938
2024-05-09T02:47:16.000Z,562.5422973632812
2024-05-09T02:48:18.000Z,562.705322265625
2024-05-09T02:49:21.000Z,561.6961059570312
2024-05-09T02:50:23.000Z,559.2357177734375
2024-05-09T02:51:25.000Z,557.8607788085938
2024-05-09T02:52:27.000Z,556.8536987304688
2024-05-09T02:53:29.000Z,555.4515991210938
2024-05-09T02:54:31.000Z,555.7803955078125
2024-05-09T02:55:33.000Z,556.8948364257812
2024-05-09T02:56:36.000Z,559.544189453125
2024-05-09T02:57:38.000Z,557.004638671875
2024-05-09T02:58:40.000Z,553.9976806640625
2024-05-09T02:59:42.000Z,549.7139282226562
2024-05-09T03:00:44.000Z,551.3550415039062
2024-05-09T03:01:46.000Z,550.2755737304688
2024-05-09T03:02:49.000Z,553.4263916015625
2024-05-09T03:03:51.000Z,554.3763427734375
2024-05-09T03:04:53.000Z,555.8496704101562
2024-05-09T03:05:55.000Z,556.5718994140625
2024-05-09T03:06:57.000Z,558.4537963867188
2024-05-09T03:07:59.000Z,555.5294799804688
2024-05-09T03:09:02.000Z,554.49609375
2024-05-09T03:10:04.000Z,555.1934204101562
2024-05-09T03:11:06.000Z,554.98388671875
2024-05-09T03:12:08.000Z,553.0158081054688
2024-05-09T03:13:10.000Z,553.9271850585938
2024-05-09T03:14:12.000Z,555.05859375
2024-05-09T03:15:15.000Z,554.7717895507812
2024-05-09T03:16:17.000Z,558.185302734375
2024-05-09T03:17:19.000Z,560.5339965820312
2024-05-09T03:18:21.000Z,559.9530029296875
2024-05-09T03:19:23.000Z,559.7750854492188
2024-05-09T03:20:25.000Z,558.5116577148438
2024-05-09T03:21:27.000Z,557.4382934570312
2024-05-09T03:22:30.000Z,559.5186767578125
2024-05-09T03:23:32.000Z,555.35107421875
2024-05-09T03:24:34.000Z,552.9780883789062
2024-05-09T03:25:36.000Z,555.1531372070312
2024-05-09T03:26:38.000Z,555.7646484375
2024-05-09T03:27:40.000Z,558.0238647460938
2024-05-09T03:28:43.000Z,560.168701171875
2024-05-09T03:29:45.000Z,561.2265625
2024-05-09T03:30:47.000Z,561.8695678710938
2024-05-09T03:31:49.000Z,561.1215209960938
2024-05-09T03:32:51.000Z,561.2296752929688
2024-05-09T03:33:53.000Z,559.5784301757812
2024-05-09T03:34:56.000Z,562.3431396484375
2024-05-09T03:35:58.000Z,563.1014404296875
2024-05-09T03:37:00.000Z,565.5230712890625
2024-05-09T03:38:02.000Z,567.8322143554688
2024-05-09T03:39:04.000Z,571.5875854492188
2024-05-09T03:40:06.000Z,574.6089477539062
2024-05-09T03:41:09.000Z,574.3216552734375
2024-05-09T03:42:11.000Z,571.3939819335938
2024-05-09T03:43:13.000Z,571.7640380859375
2024-05-09T03:44:15.000Z,573.5266723632812
2024-05-09T03:45:17.000Z,571.9877319335938
2024-05-09T03:46:19.000Z,569.1251220703125
2024-05-09T03:47:21.000Z,567.6184692382812
2024-05-09T03:48:24.000Z,565.9667358398438
2024-05-09T03:49:26.000Z,565.7726440429688
2024-05-09T03:50:28.000Z,565.7586059570312
2024-05-09T03:51:30.000Z,562.5773315429688
2024-05-09T03:52:32.000Z,559.585693359375
2024-05-09T03:53:34.000Z,554.69677734375
2024-05-09T03:54:36.000Z,551.807861328125
2024-05-09T03:55:39.000Z,548.3809204101562
2024-05-09T03:56:41.000Z,551.3778686523438
2024-05-09T03:57:43.000Z,546.2176513671875
2024-05-09T03:58:45.000Z,548.93115234375
2024-05-09T03:59:47.000Z,544.8245849609375
2024-05-09T04:00:49.000Z,544.8704223632812
2024-05-09T04:01:51.000Z,545.1087036132812
2024-05-09T04:02:54.000Z,546.5172119140625
2024-05-09T04:03:56.000Z,543.1845092773438
2024-05-09T04:04:58.000Z,540.3294067382812
2024-05-09T04:06:00.000Z,539.8748168945312
2024-05-09T04:07:02.000Z,537.8089599609375
2024-05-09T04:08:04.000Z,535.2650756835938
2024-05-09T04:09:06.000Z,533.5457763671875
2024-05-09T04:10:09.000Z,533.8403930664062
2024-05-09T04:11:11.000Z,531.8646240234375
2024-05-09T04:12:13.000Z,532.2138671875
2024-05-09T04:13:15.000Z,533.5352172851562
2024-05-09T04:14:17.000Z,534.6047973632812
2024-05-09T04:15:20.000Z,532.1620483398438
2024-05-09T04:16:22.000Z,530.20068359375
2024-05-09T04:17:24.000Z,528.8451538085938
2024-05-09T04:18:26.000Z,528.957275390625
2024-05-09T04:19:28.000Z,529.3931884765625
2024-05-09T04:20:30.000Z,527.88427734375
2024-05-09T04:21:32.000Z,523.7100219726562
2024-05-09T04:22:35.000Z,522.4981079101562
2024-05-09T04:23:37.000Z,519.0634765625
2024-05-09T04:24:39.000Z,519.4972534179688
2024-05-09T04:25:41.000Z,518.2674560546875
2024-05-09T04:26:43.000Z,519.5247192382812
2024-05-09T04:27:45.000Z,518.184814453125
2024-05-09T04:28:48.000Z,521.810791015625
2024-05-09T04:29:50.000Z,520.137451171875
2024-05-09T04:30:52.000Z,519.69677734375
2024-05-09T04:31:54.000Z,521.9979248046875
2024-05-09T04:32:56.000Z,520.4469604492188
2024-05-09T04:33:58.000Z,517.901611328125
2024-05-09T04:35:01.000Z,519.599365234375
2024-05-09T04:36:03.000Z,520.2057495117188
2024-05-09T04:37:05.000Z,520.4203491210938
2024-05-09T04:38:07.000Z,522.0425415039062
2024-05-09T04:39:09.000Z,522.174072265625
2024-05-09T04:40:11.000Z,521.2008666992188
2024-05-09T04:41:14.000Z,518.8739624023438
2024-05-09T04:42:16.000Z,519.8128051757812
2024-05-09T04:43:18.000Z,521.1834106445312
2024-05-09T04:44:20.000Z,523.6148071289062
2024-05-09T04:45:22.000Z,522.1476440429688
2024-05-09T04:46:24.000Z,524.4583129882812
2024-05-09T04:47:27.000Z,523.5283203125
2024-05-09T04:48:29.000Z,521.9628295898438
2024-05-09T04:49:31.000Z,521.6229858398438
2024-05-09T04:50:33.000Z,522.0353393554688
2024-05-09T04:51:35.000Z,520.3529052734375
2024-05-09T04:52:37.000Z,520.55126953125
2024-05-09T04:53:40.000Z,519.343994140625
2024-05-09T04:54:42.000Z,521.583740234375
2024-05-09T04:55:44.000Z,520.8460693359375
2024-05-09T04:56:46.000Z,521.0652465820312
2024-05-09T04:57:48.000Z,519.4261474609375
2024-05-09T04:58:50.000Z,517.4234619140625
2024-05-09T04:59:52.000Z,515.1028442382812
2024-05-09T05:00:55.000Z,515.6014404296875
2024-05-09T05:01:57.000Z,513.5880737304688
2024-05-09T05:02:59.000Z,513.3642578125
2024-05-09T05:04:01.000Z,513.2822265625
2024-05-09T05:05:03.000Z,512.4688110351562
2024-05-09T05:06:06.000Z,510.42889404296875
2024-05-09T05:07:08.000Z,509.7828674316406
2024-05-09T05:08:10.000Z,509.8659973144531
2024-05-09T05:09:12.000Z,511.87060546875
2024-05-09T05:10:14.000Z,512.0016479492188
2024-05-09T05:11:16.000Z,512.3733520507812
2024-05-09T05:12:19.000Z,513.0245361328125
2024-05-09T05:13:21.000Z,516.0068969726562
2024-05-09T05:14:23.000Z,515.5896606445312
2024-05-09T05:15:25.000Z,514.0875244140625
2024-05-09T05:16:27.000Z,511.0182189941406
2024-05-09T05:17:29.000Z,511.9858703613281
2024-05-09T05:18:31.000Z,512.5657348632812
2024-05-09T05:19:34.000Z,513.437255859375
2024-05-09T05:20:36.000Z,513.2623291015625
2024-05-09T05:21:38.000Z,513.301025390625
2024-05-09T05:22:40.000Z,514.0505981445312
2024-05-09T05:23:42.000Z,510.87823486328125
2024-05-09T05:24:44.000Z,510.3789978027344
2024-05-09T05:25:47.000Z,507.24224853515625
2024-05-09T05:26:49.000Z,509.389892578125
2024-05-09T05:27:51.000Z,509.0302429199219
2024-05-09T05:28:53.000Z,508.9119873046875
2024-05-09T05:29:55.000Z,506.6825256347656
2024-05-09T05:30:57.000Z,503.4752502441406
2024-05-09T05:31:59.000Z,503.4884948730469
2024-05-09T05:33:02.000Z,501.80560302734375
2024-05-09T05:34:04.000Z,500.0452575683594
2024-05-09T05:35:06.000Z,498.98291015625
2024-05-09T05:36:08.000Z,498.3458251953125
2024-05-09T05:37:10.000Z,499.5845947265625
2024-05-09T05:38:12.000Z,503.0643615722656
2024-05-09T05:39:15.000Z,502.12628173828125
2024-05-09T05:40:17.000Z,501.1369323730469
2024-05-09T05:41:19.000Z,496.95574951171875
2024-05-09T05:42:21.000Z,497.6536865234375
2024-05-09T05:43:23.000Z,497.072509765625
2024-05-09T05:44:25.000Z,496.7149353027344
2024-05-09T05:45:27.000Z,497.58184814453125
2024-05-09T05:46:30.000Z,498.20709228515625
2024-05-09T05:47:32.000Z,496.6786804199219
2024-05-09T05:48:34.000Z,496.31036376953125
2024-05-09T05:49:36.000Z,499.0393371582031
2024-05-09T05:50:38.000Z,497.83416748046875
2024-05-09T05:51:40.000Z,498.0144958496094
2024-05-09T05:52:43.000Z,496.4535217285156
2024-05-09T05:53:45.000Z,495.3304748535156
2024-05-09T05:54:47.000Z,495.53167724609375
2024-05-09T05:55:49.000Z,491.99676513671875
2024-05-09T05:56:51.000Z,492.75311279296875
2024-05-09T05:57:53.000Z,492.8050537109375
2024-05-09T05:58:56.000Z,495.0113525390625
2024-05-09T05:59:58.000Z,495.2742919921875
2024-05-09T06:01:00.000Z,497.9207763671875
2024-05-09T06:02:02.000Z,499.07562255859375
2024-05-09T06:03:04.000Z,499.3407897949219
2024-05-09T06:04:06.000Z,498.67523193359375
2024-05-09T06:05:09.000Z,499.074462890625
2024-05-09T06:06:11.000Z,500.0624694824219
2024-05-09T06:07:13.000Z,498.2247009277344
2024-05-09T06:08:15.000Z,496.3182678222656
2024-05-09T06:09:17.000Z,492.5411682128906
2024-05-09T06:10:19.000Z,493.9707946777344
2024-05-09T06:11:22.000Z,496.5091552734375
2024-05-09T06:12:24.000Z,498.8626708984375
2024-05-09T06:13:26.000Z,496.9815979003906
2024-05-09T06:14:28.000Z,497.3384094238281
2024-05-09T06:15:30.000Z,494.9152526855469
2024-05-09T06:16:32.000Z,494.145751953125
2024-05-09T06:17:35.000Z,494.8581848144531
2024-05-09T06:18:37.000Z,496.7231750488281
2024-05-09T06:19:39.000Z,499.5910949707031
2024-05-09T06:20:41.000Z,503.85662841796875
2024-05-09T06:21:43.000Z,501.4137268066406
2024-05-09T06:22:45.000Z,505.4551086425781
2024-05-09T06:23:47.000Z,505.8702392578125
2024-05-09T06:24:49.000Z,506.9466857910156
2024-05-09T06:25:52.000Z,503.2754211425781
2024-05-09T06:26:54.000Z,503.5729064941406
2024-05-09T06:27:56.000Z,500.8956298828125
2024-05-09T06:28:58.000Z,502.0773620605469
2024-05-09T06:30:00.000Z,500.26690673828125
2024-05-09T06:31:02.000Z,498.9956970214844
2024-05-09T06:32:05.000Z,496.828369140625
2024-05-09T06:33:07.000Z,497.096923828125
2024-05-09T06:34:09.000Z,496.07989501953125
2024-05-09T06:35:11.000Z,496.1919860839844
2024-05-09T06:36:13.000Z,494.4173583984375
2024-05-09T06:37:15.000Z,492.81658935546875
2024-05-09T06:38:17.000Z,491.67645263671875
2024-05-09T06:39:20.000Z,492.2488708496094
2024-05-09T06:40:22.000Z,490.978515625
2024-05-09T06:41:24.000Z,490.851318359375
2024-05-09T06:42:26.000Z,489.9628601074219
2024-05-09T06:43:28.000Z,488.3807373046875
2024-05-09T06:44:31.000Z,488.11053466796875
2024-05-09T06:45:33.000Z,489.99151611328125
2024-05-09T06:46:35.000Z,486.58905029296875
2024-05-09T06:47:37.000Z,486.4200439453125
2024-05-09T06:48:39.000Z,487.445068359375
2024-05-09T06:49:41.000Z,489.2982482910156
2024-05-09T06:50:43.000Z,489.50457763671875
2024-05-09T06:51:46.000Z,486.6338195800781
2024-05-09T06:52:48.000Z,485.55767822265625
2024-05-09T06:53:50.000Z,483.8055419921875
2024-05-09T06:54:52.000Z,485.6306457519531
2024-05-09T06:55:54.000Z,481.6192626953125
2024-05-09T06:56:56.000Z,482.1793212890625
2024-05-09T06:57:59.000Z,480.26092529296875
2024-05-09T06:59:01.000Z,482.4244079589844
2024-05-09T07:00:03.000Z,481.1778259277344
2024-05-09T07:01:05.000Z,479.7325744628906
2024-05-09T07:02:07.000Z,478.4359130859375
2024-05-09T07:03:09.000Z,481.1595458984375
2024-05-09T07:04:12.000Z,479.91461181640625
2024-05-09T07:05:14.000Z,476.8597412109375
2024-05-09T07:06:16.000Z,479.1449279785156
2024-05-09T07:07:18.000Z,478.5987243652344
2024-05-09T07:08:20.000Z,477.8423767089844
2024-05-09T07:09:22.000Z,476.28314208984375
2024-05-09T07:10:24.000Z,475.0992736816406
2024-05-09T07:11:27.000Z,474.1103210449219
2024-05-09T07:12:29.000Z,476.27978515625
2024-05-09T07:13:31.000Z,477.18670654296875
2024-05-09T07:14:33.000Z,477.8948059082031
2024-05-09T07:15:35.000Z,477.7373962402344
2024-05-09T07:16:37.000Z,474.80499267578125
2024-05-09T07:17:40.000Z,475.2184753417969
2024-05-09T07:18:42.000Z,472.6849365234375
2024-05-09T07:19:44.000Z,472.3577575683594
2024-05-09T07:20:46.000Z,473.94378662109375
2024-05-09T07:21:48.000Z,472.1931457519531
2024-05-09T07:22:50.000Z,472.7208251953125
2024-05-09T07:23:53.000Z,469.5876159667969
2024-05-09T07:24:55.000Z,470.944580078125
2024-05-09T07:25:57.000Z,467.40557861328125
2024-05-09T07:26:59.000Z,471.7626647949219
2024-05-09T07:28:01.000Z,470.8285217285156
2024-05-09T07:29:03.000Z,471.3735046386719
2024-05-09T07:30:06.000Z,471.3400573730469
2024-05-09T07:31:08.000Z,472.88848876953125
2024-05-09T07:32:10.000Z,470.62664794921875
2024-05-09T07:33:12.000Z,470.56561279296875
2024-05-09T07:34:14.000Z,469.9563293457031
2024-05-09T07:35:16.000Z,471.240478515625
2024-05-09T07:36:18.000Z,470.0334777832031
2024-05-09T07:37:21.000Z,467.8404846191406
2024-05-09T07:38:23.000Z,467.0646057128906
2024-05-09T07:39:25.000Z,467.3805236816406
2024-05-09T07:40:27.000Z,465.1472473144531
2024-05-09T07:41:29.000Z,465.3367919921875
2024-05-09T07:41:29.000Z,465.3367919921875
2024-05-09T07:42:31.000Z,467.52069091796875
2024-05-09T07:42:31.000Z,467.52069091796875
2024-05-09T07:43:33.000Z,468.2724304199219
2024-05-09T07:43:33.000Z,468.2724304199219
2024-05-09T07:44:36.000Z,468.87420654296875
2024-05-09T07:44:36.000Z,468.87420654296875
2024-05-09T07:45:38.000Z,471.2856750488281
2024-05-09T07:45:38.000Z,471.2856750488281
2024-05-09T07:46:40.000Z,469.4739990234375
2024-05-09T07:46:40.000Z,469.4739990234375
2024-05-09T07:47:42.000Z,466.10394287109375
2024-05-09T07:47:42.000Z,466.10394287109375
2024-05-09T07:48:44.000Z,463.8570556640625
2024-05-09T07:48:44.000Z,463.8570556640625
2024-05-09T07:49:46.000Z,462.38250732421875
2024-05-09T07:49:46.000Z,462.38250732421875
2024-05-09T07:50:49.000Z,460.1658935546875
2024-05-09T07:50:49.000Z,460.1658935546875
2024-05-09T07:51:51.000Z,459.4876403808594
2024-05-09T07:52:53.000Z,460.1716613769531
2024-05-09T07:53:55.000Z,461.2100830078125
2024-05-09T07:54:57.000Z,462.8460998535156
2024-05-09T07:55:59.000Z,464.225341796875
2024-05-09T07:57:02.000Z,464.169189453125
2024-05-09T07:58:04.000Z,463.4728698730469
2024-05-09T07:59:06.000Z,462.66400146484375
2024-05-09T08:00:08.000Z,462.0100402832031
2024-05-09T08:01:10.000Z,462.05474853515625
2024-05-09T08:02:12.000Z,463.6216125488281
2024-05-09T08:03:15.000Z,463.3843994140625
2024-05-09T08:04:17.000Z,462.74224853515625
2024-05-09T08:05:19.000Z,465.6484069824219
2024-05-09T08:06:21.000Z,465.3840026855469
2024-05-09T08:07:23.000Z,464.61785888671875
2024-05-09T08:08:25.000Z,462.8577575683594
2024-05-09T08:09:28.000Z,460.2921142578125
2024-05-09T08:10:30.000Z,458.93408203125
2024-05-09T08:11:32.000Z,459.3987121582031
2024-05-09T08:12:34.000Z,461.74029541015625
2024-05-09T08:13:36.000Z,460.46234130859375
2024-05-09T08:14:38.000Z,456.30682373046875
2024-05-09T08:15:40.000Z,456.5782470703125
2024-05-09T08:16:42.000Z,455.51287841796875
2024-05-09T08:17:45.000Z,454.9085693359375
2024-05-09T08:18:47.000Z,456.029052734375
2024-05-09T08:19:49.000Z,456.0928039550781
2024-05-09T08:20:51.000Z,455.4930114746094
2024-05-09T08:21:53.000Z,453.2279052734375
2024-05-09T08:22:55.000Z,453.1558532714844
2024-05-09T08:23:57.000Z,450.2175598144531
2024-05-09T08:24:59.000Z,450.42413330078125
2024-05-09T08:26:02.000Z,449.8122253417969
2024-05-09T08:27:04.000Z,451.78399658203125
2024-05-09T08:28:06.000Z,448.6539611816406
2024-05-09T08:29:08.000Z,447.2366943359375
2024-05-09T08:30:10.000Z,445.433349609375
2024-05-09T08:31:12.000Z,445.6498107910156
2024-05-09T08:32:15.000Z,441.756103515625
2024-05-09T08:33:17.000Z,437.52301025390625
2024-05-09T08:34:19.000Z,437.4654846191406
2024-05-09T08:35:21.000Z,438.01348876953125
2024-05-09T08:36:23.000Z,438.76202392578125
2024-05-09T08:37:25.000Z,440.2583923339844
2024-05-09T08:38:27.000Z,438.3937683105469
2024-05-09T08:39:30.000Z,444.6561584472656
2024-05-09T08:40:32.000Z,446.8582763671875
2024-05-09T08:41:34.000Z,444.96087646484375
2024-05-09T08:42:36.000Z,445.3235778808594
2024-05-09T08:43:38.000Z,444.1199035644531
2024-05-09T08:44:40.000Z,443.6372985839844
2024-05-09T08:45:42.000Z,442.8795166015625
2024-05-09T08:46:45.000Z,441.42669677734375
2024-05-09T08:47:47.000Z,440.1244812011719
2024-05-09T08:48:49.000Z,437.4105529785156
2024-05-09T08:49:51.000Z,435.5329895019531
2024-05-09T08:50:53.000Z,437.24310302734375
2024-05-09T08:51:55.000Z,435.3355407714844
2024-05-09T08:52:57.000Z,440.0975646972656
2024-05-09T08:54:00.000Z,441.8254089355469
2024-05-09T08:55:02.000Z,444.6336975097656
2024-05-09T08:56:04.000Z,444.3626708984375
2024-05-09T08:57:06.000Z,444.73651123046875
2024-05-09T08:58:08.000Z,440.4957275390625
2024-05-09T08:59:10.000Z,442.2377014160156
2024-05-09T09:00:12.000Z,439.6952819824219
2024-05-09T09:01:15.000Z,437.9009704589844
2024-05-09T09:02:17.000Z,434.86419677734375
2024-05-09T09:03:19.000Z,433.5204162597656
2024-05-09T09:04:21.000Z,434.2851867675781
2024-05-09T09:05:23.000Z,433.82000732421875
2024-05-09T09:06:25.000Z,432.1406555175781
2024-05-09T09:07:28.000Z,429.7611083984375
2024-05-09T09:08:30.000Z,429.4991455078125
2024-05-09T09:09:32.000Z,428.4167175292969
2024-05-09T09:10:34.000Z,428.71240234375
2024-05-09T09:11:36.000Z,430.9813537597656
2024-05-09T09:12:38.000Z,430.6026611328125
2024-05-09T09:13:40.000Z,428.3182373046875
2024-05-09T09:14:43.000Z,427.56109619140625
2024-05-09T09:15:45.000Z,430.4859924316406
2024-05-09T09:16:47.000Z,433.02655029296875
2024-05-09T09:17:49.000Z,431.9033203125
2024-05-09T09:18:51.000Z,431.6295166015625
2024-05-09T09:19:53.000Z,428.6379089355469
2024-05-09T09:20:56.000Z,433.1674499511719
2024-05-09T09:21:58.000Z,429.6448974609375
2024-05-09T09:23:00.000Z,432.18585205078125
2024-05-09T09:24:02.000Z,432.2849426269531
2024-05-09T09:25:04.000Z,429.9627685546875
2024-05-09T09:26:06.000Z,425.98480224609375
2024-05-09T09:27:09.000Z,427.121826171875
2024-05-09T09:28:11.000Z,430.6388854980469